sensor_id;sensor_type;location;lat;lon;timestamp;pressure;altitude;pressure_sealevel;temperature;humidity
13015;BME280;6573;57.696;11.950;2022-12-16T00:01:51;101207.31;;;-6.79;100.00
13015;BME280;6573;57.696;11.950;2022-12-16T00:04:20;101206.75;;;-6.75;100.00
13015;BME280;6573;57.696;11.950;2022-12-16T00:06:49;101215.97;;;-6.77;100.00
13015;BME280;6573;57.696;11.950;2022-12-16T00:09:17;101207.19;;;-6.69;100.00
13015;BME280;6573;57.696;11.950;2022-12-16T00:11:47;101216.28;;;-6.72;100.00
13015;BME280;6573;57.696;11.950;2022-12-16T00:14:17;101208.53;;;-6.74;100.00
13015;BME280;6573;57.696;11.950;2022-12-16T00:16:45;101210.31;;;-6.73;100.00
13015;BME280;6573;57.696;11.950;2022-12-16T00:19:13;101200.63;;;-6.77;100.00
13015;BME280;6573;57.696;11.950;2022-12-16T00:21:42;101214.41;;;-6.75;100.00
13015;BME280;6573;57.696;11.950;2022-12-16T00:24:10;101220.56;;;-6.73;100.00
13015;BME280;6573;57.696;11.950;2022-12-16T00:26:38;101216.19;;;-6.74;100.00
13015;BME280;6573;57.696;11.950;2022-12-16T00:29:08;101217.19;;;-6.72;100.00
13015;BME280;6573;57.696;11.950;2022-12-16T00:31:37;101213.66;;;-6.74;100.00
13015;BME280;6573;57.696;11.950;2022-12-16T00:34:05;101220.31;;;-6.76;100.00
13015;BME280;6573;57.696;11.950;2022-12-16T00:36:34;101221.88;;;-6.78;100.00
13015;BME280;6573;57.696;11.950;2022-12-16T00:39:02;101231.66;;;-6.84;100.00
13015;BME280;6573;57.696;11.950;2022-12-16T00:41:31;101222.53;;;-6.92;100.00
13015;BME280;6573;57.696;11.950;2022-12-16T00:43:59;101220.78;;;-6.93;100.00
13015;BME280;6573;57.696;11.950;2022-12-16T00:46:29;101232.78;;;-6.92;100.00
13015;BME280;6573;57.696;11.950;2022-12-16T00:48:57;101223.56;;;-6.90;100.00
13015;BME280;6573;57.696;11.950;2022-12-16T00:51:26;101233.22;;;-6.86;100.00
13015;BME280;6573;57.696;11.950;2022-12-16T00:53:54;101211.66;;;-7.01;100.00
13015;BME280;6573;57.696;11.950;2022-12-16T00:56:22;101239.69;;;-6.68;100.00
13015;BME280;6573;57.696;11.950;2022-12-16T00:58:51;101238.09;;;-6.54;100.00
13015;BME280;6573;57.696;11.950;2022-12-16T01:01:20;101246.22;;;-6.48;100.00
13015;BME280;6573;57.696;11.950;2022-12-16T01:03:50;101249.22;;;-6.53;100.00
13015;BME280;6573;57.696;11.950;2022-12-16T01:06:20;101251.66;;;-6.43;100.00
13015;BME280;6573;57.696;11.950;2022-12-16T01:08:49;101246.09;;;-6.49;100.00
13015;BME280;6573;57.696;11.950;2022-12-16T01:11:18;101231.66;;;-6.61;100.00
13015;BME280;6573;57.696;11.950;2022-12-16T01:13:49;101248.56;;;-6.63;100.00
13015;BME280;6573;57.696;11.950;2022-12-16T01:16:21;101251.41;;;-6.46;100.00
13015;BME280;6573;57.696;11.950;2022-12-16T01:18:51;101258.91;;;-6.73;100.00
13015;BME280;6573;57.696;11.950;2022-12-16T01:21:21;101256.25;;;-6.86;100.00
13015;BME280;6573;57.696;11.950;2022-12-16T01:23:49;101261.25;;;-6.76;100.00
13015;BME280;6573;57.696;11.950;2022-12-16T01:26:21;101256.13;;;-6.76;100.00
13015;BME280;6573;57.696;11.950;2022-12-16T01:28:49;101255.13;;;-6.78;100.00
13015;BME280;6573;57.696;11.950;2022-12-16T01:31:18;101253.69;;;-6.86;100.00
13015;BME280;6573;57.696;11.950;2022-12-16T01:33:47;101269.25;;;-6.83;100.00
13015;BME280;6573;57.696;11.950;2022-12-16T01:36:18;101260.78;;;-6.82;100.00
13015;BME280;6573;57.696;11.950;2022-12-16T01:38:47;101257.91;;;-6.86;100.00
13015;BME280;6573;57.696;11.950;2022-12-16T01:41:17;101264.13;;;-6.83;100.00
13015;BME280;6573;57.696;11.950;2022-12-16T01:43:46;101274.38;;;-6.83;100.00
13015;BME280;6573;57.696;11.950;2022-12-16T01:46:18;101263.69;;;-6.89;100.00
13015;BME280;6573;57.696;11.950;2022-12-16T01:48:51;101264.25;;;-6.93;100.00
13015;BME280;6573;57.696;11.950;2022-12-16T01:51:27;101264.78;;;-6.97;100.00
13015;BME280;6573;57.696;11.950;2022-12-16T01:54:02;101254.13;;;-7.03;100.00
13015;BME280;6573;57.696;11.950;2022-12-16T01:56:32;101250.56;;;-7.05;100.00
13015;BME280;6573;57.696;11.950;2022-12-16T01:59:02;101249.91;;;-6.91;100.00
13015;BME280;6573;57.696;11.950;2022-12-16T02:01:30;101243.66;;;-6.94;100.00
13015;BME280;6573;57.696;11.950;2022-12-16T02:04:00;101249.66;;;-6.94;100.00
13015;BME280;6573;57.696;11.950;2022-12-16T02:06:32;101244.56;;;-6.94;100.00
13015;BME280;6573;57.696;11.950;2022-12-16T02:09:04;101251.56;;;-6.91;100.00
13015;BME280;6573;57.696;11.950;2022-12-16T02:11:49;101254.78;;;-6.94;100.00
13015;BME280;6573;57.696;11.950;2022-12-16T02:14:52;101243.91;;;-6.80;100.00
13015;BME280;6573;57.696;11.950;2022-12-16T02:17:27;101256.22;;;-7.09;100.00
13015;BME280;6573;57.696;11.950;2022-12-16T02:23:34;101250.25;;;-7.09;100.00
13015;BME280;6573;57.696;11.950;2022-12-16T02:26:34;101257.44;;;-7.04;100.00
13015;BME280;6573;57.696;11.950;2022-12-16T02:29:31;101260.13;;;-6.91;100.00
13015;BME280;6573;57.696;11.950;2022-12-16T02:32:09;101266.34;;;-6.76;100.00
13015;BME280;6573;57.696;11.950;2022-12-16T02:34:45;101262.34;;;-6.84;100.00
13015;BME280;6573;57.696;11.950;2022-12-16T02:37:22;101259.69;;;-6.74;100.00
13015;BME280;6573;57.696;11.950;2022-12-16T02:39:59;101269.44;;;-6.57;100.00
13015;BME280;6573;57.696;11.950;2022-12-16T02:42:30;101269.69;;;-6.77;100.00
13015;BME280;6573;57.696;11.950;2022-12-16T02:45:02;101275.47;;;-6.79;100.00
13015;BME280;6573;57.696;11.950;2022-12-16T02:47:32;101268.34;;;-6.72;100.00
13015;BME280;6573;57.696;11.950;2022-12-16T02:50:01;101269.03;;;-6.63;100.00
13015;BME280;6573;57.696;11.950;2022-12-16T02:52:31;101271.91;;;-6.93;100.00
13015;BME280;6573;57.696;11.950;2022-12-16T02:55:05;101275.69;;;-6.88;100.00
13015;BME280;6573;57.696;11.950;2022-12-16T02:57:49;101280.34;;;-6.94;100.00
13015;BME280;6573;57.696;11.950;2022-12-16T03:00:22;101281.91;;;-6.96;100.00
13015;BME280;6573;57.696;11.950;2022-12-16T03:02:58;101284.13;;;-6.89;100.00
13015;BME280;6573;57.696;11.950;2022-12-16T03:05:30;101282.38;;;-6.90;100.00
13015;BME280;6573;57.696;11.950;2022-12-16T03:08:04;101273.00;;;-7.01;100.00
13015;BME280;6573;57.696;11.950;2022-12-16T03:10:36;101288.13;;;-7.04;100.00
13015;BME280;6573;57.696;11.950;2022-12-16T03:13:07;101273.56;;;-7.05;100.00
13015;BME280;6573;57.696;11.950;2022-12-16T03:15:38;101283.47;;;-6.98;100.00
13015;BME280;6573;57.696;11.950;2022-12-16T03:18:11;101283.25;;;-7.01;100.00
13015;BME280;6573;57.696;11.950;2022-12-16T03:20:46;101279.69;;;-7.03;100.00
13015;BME280;6573;57.696;11.950;2022-12-16T03:23:19;101275.47;;;-6.91;100.00
13015;BME280;6573;57.696;11.950;2022-12-16T03:25:50;101278.69;;;-6.93;100.00
13015;BME280;6573;57.696;11.950;2022-12-16T03:28:31;101291.25;;;-6.96;100.00
13015;BME280;6573;57.696;11.950;2022-12-16T03:31:07;101272.53;;;-7.07;100.00
13015;BME280;6573;57.696;11.950;2022-12-16T03:33:47;101292.22;;;-7.06;100.00
13015;BME280;6573;57.696;11.950;2022-12-16T03:36:20;101284.78;;;-7.03;100.00
13015;BME280;6573;57.696;11.950;2022-12-16T03:38:50;101270.78;;;-7.08;100.00
13015;BME280;6573;57.696;11.950;2022-12-16T03:41:19;101279.22;;;-7.09;100.00
13015;BME280;6573;57.696;11.950;2022-12-16T03:43:50;101284.34;;;-7.09;100.00
13015;BME280;6573;57.696;11.950;2022-12-16T03:46:20;101284.22;;;-7.10;100.00
13015;BME280;6573;57.696;11.950;2022-12-16T03:48:50;101276.75;;;-7.19;100.00
13015;BME280;6573;57.696;11.950;2022-12-16T03:51:19;101282.56;;;-7.10;100.00
13015;BME280;6573;57.696;11.950;2022-12-16T03:53:47;101284.13;;;-7.12;100.00
13015;BME280;6573;57.696;11.950;2022-12-16T03:56:16;101293.69;;;-7.09;100.00
13015;BME280;6573;57.696;11.950;2022-12-16T03:58:44;101293.91;;;-7.06;100.00
13015;BME280;6573;57.696;11.950;2022-12-16T04:01:13;101294.56;;;-7.09;100.00
13015;BME280;6573;57.696;11.950;2022-12-16T04:03:41;101292.78;;;-7.10;100.00
13015;BME280;6573;57.696;11.950;2022-12-16T04:06:11;101299.13;;;-7.05;100.00
13015;BME280;6573;57.696;11.950;2022-12-16T04:08:44;101299.47;;;-7.12;100.00
13015;BME280;6573;57.696;11.950;2022-12-16T04:11:14;101311.91;;;-7.05;100.00
13015;BME280;6573;57.696;11.950;2022-12-16T04:14:00;101312.78;;;-7.04;100.00
13015;BME280;6573;57.696;11.950;2022-12-16T04:16:45;101305.50;;;-7.00;100.00
13015;BME280;6573;57.696;11.950;2022-12-16T04:19:34;101300.56;;;-6.97;100.00
13015;BME280;6573;57.696;11.950;2022-12-16T04:22:24;101296.13;;;-6.99;100.00
13015;BME280;6573;57.696;11.950;2022-12-16T04:25:14;101321.91;;;-7.08;100.00
13015;BME280;6573;57.696;11.950;2022-12-16T04:27:43;101307.25;;;-6.99;100.00
13015;BME280;6573;57.696;11.950;2022-12-16T04:30:13;101313.50;;;-6.84;100.00
13015;BME280;6573;57.696;11.950;2022-12-16T04:32:51;101302.38;;;-6.96;100.00
13015;BME280;6573;57.696;11.950;2022-12-16T04:35:38;101320.63;;;-6.80;100.00
13015;BME280;6573;57.696;11.950;2022-12-16T04:38:25;101326.13;;;-6.97;100.00
13015;BME280;6573;57.696;11.950;2022-12-16T04:41:11;101321.91;;;-7.08;100.00
13015;BME280;6573;57.696;11.950;2022-12-16T04:43:57;101318.97;;;-7.24;100.00
13015;BME280;6573;57.696;11.950;2022-12-16T04:46:43;101331.13;;;-7.10;100.00
13015;BME280;6573;57.696;11.950;2022-12-16T04:49:29;101321.91;;;-6.96;100.00
13015;BME280;6573;57.696;11.950;2022-12-16T04:52:20;101323.16;;;-6.91;100.00
13015;BME280;6573;57.696;11.950;2022-12-16T04:55:08;101318.25;;;-7.00;100.00
13015;BME280;6573;57.696;11.950;2022-12-16T04:57:55;101323.28;;;-6.90;100.00
13015;BME280;6573;57.696;11.950;2022-12-16T05:00:42;101322.84;;;-6.73;100.00
13015;BME280;6573;57.696;11.950;2022-12-16T05:03:28;101303.25;;;-6.84;100.00
13015;BME280;6573;57.696;11.950;2022-12-16T05:06:14;101299.03;;;-6.95;100.00
13015;BME280;6573;57.696;11.950;2022-12-16T05:09:02;101322.38;;;-6.79;100.00
13015;BME280;6573;57.696;11.950;2022-12-16T05:11:49;101330.53;;;-6.73;100.00
13015;BME280;6573;57.696;11.950;2022-12-16T05:14:49;101335.75;;;-6.83;100.00
13015;BME280;6573;57.696;11.950;2022-12-16T05:17:35;101337.59;;;-6.92;100.00
13015;BME280;6573;57.696;11.950;2022-12-16T05:20:21;101336.25;;;-7.10;100.00
13015;BME280;6573;57.696;11.950;2022-12-16T05:23:06;101316.97;;;-7.28;100.00
13015;BME280;6573;57.696;11.950;2022-12-16T05:25:52;101339.00;;;-7.07;100.00
13015;BME280;6573;57.696;11.950;2022-12-16T05:28:40;101336.16;;;-7.00;100.00
13015;BME280;6573;57.696;11.950;2022-12-16T05:31:25;101338.41;;;-6.93;100.00
13015;BME280;6573;57.696;11.950;2022-12-16T05:34:11;101352.41;;;-6.88;100.00
13015;BME280;6573;57.696;11.950;2022-12-16T05:37:08;101355.72;;;-6.89;100.00
13015;BME280;6573;57.696;11.950;2022-12-16T05:39:54;101351.41;;;-6.90;100.00
13015;BME280;6573;57.696;11.950;2022-12-16T05:42:43;101351.84;;;-6.84;100.00
13015;BME280;6573;57.696;11.950;2022-12-16T05:45:30;101358.41;;;-6.87;100.00
13015;BME280;6573;57.696;11.950;2022-12-16T05:48:16;101349.72;;;-7.01;100.00
13015;BME280;6573;57.696;11.950;2022-12-16T05:51:02;101347.28;;;-6.88;100.00
13015;BME280;6573;57.696;11.950;2022-12-16T05:53:47;101346.22;;;-6.80;100.00
13015;BME280;6573;57.696;11.950;2022-12-16T05:56:33;101361.75;;;-6.77;100.00
13015;BME280;6573;57.696;11.950;2022-12-16T05:59:19;101361.31;;;-6.83;100.00
13015;BME280;6573;57.696;11.950;2022-12-16T06:02:06;101347.28;;;-6.88;100.00
13015;BME280;6573;57.696;11.950;2022-12-16T06:04:52;101360.84;;;-6.89;100.00
13015;BME280;6573;57.696;11.950;2022-12-16T06:07:37;101365.97;;;-6.89;100.00
13015;BME280;6573;57.696;11.950;2022-12-16T06:10:23;101349.06;;;-6.87;100.00
13015;BME280;6573;57.696;11.950;2022-12-16T06:13:09;101365.53;;;-6.72;100.00
13015;BME280;6573;57.696;11.950;2022-12-16T06:15:55;101363.53;;;-6.64;100.00
13015;BME280;6573;57.696;11.950;2022-12-16T06:18:43;101364.69;;;-6.61;100.00
13015;BME280;6573;57.696;11.950;2022-12-16T06:21:29;101336.50;;;-6.72;100.00
13015;BME280;6573;57.696;11.950;2022-12-16T06:24:14;101361.56;;;-6.57;100.00
13015;BME280;6573;57.696;11.950;2022-12-16T06:27:00;101363.97;;;-6.70;100.00
13015;BME280;6573;57.696;11.950;2022-12-16T06:29:46;101370.66;;;-6.72;100.00
13015;BME280;6573;57.696;11.950;2022-12-16T06:32:32;101376.00;;;-6.69;100.00
13015;BME280;6573;57.696;11.950;2022-12-16T06:35:20;101366.78;;;-6.67;100.00
13015;BME280;6573;57.696;11.950;2022-12-16T06:38:06;101367.78;;;-6.65;100.00
13015;BME280;6573;57.696;11.950;2022-12-16T06:40:52;101368.00;;;-6.62;100.00
13015;BME280;6573;57.696;11.950;2022-12-16T06:43:38;101381.59;;;-6.51;100.00
13015;BME280;6573;57.696;11.950;2022-12-16T06:46:24;101381.34;;;-6.42;100.00
13015;BME280;6573;57.696;11.950;2022-12-16T06:49:09;101379.81;;;-6.40;100.00
13015;BME280;6573;57.696;11.950;2022-12-16T06:51:57;101397.16;;;-6.36;100.00
13015;BME280;6573;57.696;11.950;2022-12-16T06:54:42;101379.91;;;-6.39;100.00
13015;BME280;6573;57.696;11.950;2022-12-16T06:57:28;101375.13;;;-6.46;100.00
13015;BME280;6573;57.696;11.950;2022-12-16T07:00:14;101392.50;;;-6.30;100.00
13015;BME280;6573;57.696;11.950;2022-12-16T07:03:00;101401.63;;;-6.34;100.00
13015;BME280;6573;57.696;11.950;2022-12-16T07:05:46;101408.72;;;-6.41;100.00
13015;BME280;6573;57.696;11.950;2022-12-16T07:08:33;101414.50;;;-6.55;100.00
13015;BME280;6573;57.696;11.950;2022-12-16T07:11:19;101408.84;;;-6.51;100.00
13015;BME280;6573;57.696;11.950;2022-12-16T07:14:16;101410.88;;;-6.47;100.00
13015;BME280;6573;57.696;11.950;2022-12-16T07:17:01;101407.19;;;-6.39;100.00
13015;BME280;6573;57.696;11.950;2022-12-16T07:19:47;101421.44;;;-6.31;100.00
13015;BME280;6573;57.696;11.950;2022-12-16T07:22:34;101421.44;;;-6.31;100.00
13015;BME280;6573;57.696;11.950;2022-12-16T07:25:36;101419.63;;;-6.32;100.00
13015;BME280;6573;57.696;11.950;2022-12-16T07:28:23;101429.00;;;-6.21;100.00
13015;BME280;6573;57.696;11.950;2022-12-16T07:31:08;101429.25;;;-6.18;100.00
13015;BME280;6573;57.696;11.950;2022-12-16T07:33:55;101437.25;;;-6.25;100.00
13015;BME280;6573;57.696;11.950;2022-12-16T07:36:40;101443.22;;;-6.36;100.00
13015;BME280;6573;57.696;11.950;2022-12-16T07:39:26;101443.47;;;-6.33;100.00
13015;BME280;6573;57.696;11.950;2022-12-16T07:42:23;101445.22;;;-6.32;100.00
13015;BME280;6573;57.696;11.950;2022-12-16T07:45:09;101449.25;;;-6.36;100.00
13015;BME280;6573;57.696;11.950;2022-12-16T07:47:55;101453.22;;;-6.51;100.00
13015;BME280;6573;57.696;11.950;2022-12-16T07:50:49;101422.63;;;-6.94;100.00
13015;BME280;6573;57.696;11.950;2022-12-16T07:53:35;101477.16;;;-6.84;100.00
13015;BME280;6573;57.696;11.950;2022-12-16T07:56:21;101464.44;;;-6.94;100.00
13015;BME280;6573;57.696;11.950;2022-12-16T07:59:09;101449.25;;;-7.14;100.00
13015;BME280;6573;57.696;11.950;2022-12-16T08:01:55;101482.75;;;-6.78;100.00
13015;BME280;6573;57.696;11.950;2022-12-16T08:04:40;101485.94;;;-6.47;100.00
13015;BME280;6573;57.696;11.950;2022-12-16T08:07:26;101487.06;;;-6.43;100.00
13015;BME280;6573;57.696;11.950;2022-12-16T08:10:11;101478.97;;;-6.26;100.00
13015;BME280;6573;57.696;11.950;2022-12-16T08:13:01;101487.56;;;-6.14;100.00
13015;BME280;6573;57.696;11.950;2022-12-16T08:15:53;101488.66;;;-6.22;100.00
13015;BME280;6573;57.696;11.950;2022-12-16T08:18:39;101499.31;;;-6.39;100.00
13015;BME280;6573;57.696;11.950;2022-12-16T08:21:24;101500.44;;;-6.47;100.00
13015;BME280;6573;57.696;11.950;2022-12-16T08:24:10;101506.75;;;-6.42;100.00
13015;BME280;6573;57.696;11.950;2022-12-16T08:26:56;101472.63;;;-6.43;100.00
13015;BME280;6573;57.696;11.950;2022-12-16T08:29:41;101492.00;;;-6.23;100.00
13015;BME280;6573;57.696;11.950;2022-12-16T08:32:29;101489.13;;;-6.16;100.00
13015;BME280;6573;57.696;11.950;2022-12-16T08:35:19;101499.78;;;-6.22;100.00
13015;BME280;6573;57.696;11.950;2022-12-16T08:38:04;101507.28;;;-6.13;100.00
13015;BME280;6573;57.696;11.950;2022-12-16T08:40:54;101492.81;;;-6.01;100.00
13015;BME280;6573;57.696;11.950;2022-12-16T08:43:39;101505.47;;;-6.03;100.00
13015;BME280;6573;57.696;11.950;2022-12-16T08:46:25;101502.94;;;-5.91;100.00
13015;BME280;6573;57.696;11.950;2022-12-16T08:49:12;101519.16;;;-5.79;100.00
13015;BME280;6573;57.696;11.950;2022-12-16T08:51:58;101517.59;;;-5.77;100.00
13015;BME280;6573;57.696;11.950;2022-12-16T08:54:44;101520.06;;;-5.67;100.00
13015;BME280;6573;57.696;11.950;2022-12-16T08:57:30;101521.63;;;-5.69;100.00
13015;BME280;6573;57.696;11.950;2022-12-16T09:00:16;101521.16;;;-5.75;100.00
13015;BME280;6573;57.696;11.950;2022-12-16T09:03:01;101533.44;;;-5.71;100.00
13015;BME280;6573;57.696;11.950;2022-12-16T09:05:49;101528.09;;;-5.74;100.00
13015;BME280;6573;57.696;11.950;2022-12-16T09:08:35;101529.53;;;-5.66;100.00
13015;BME280;6573;57.696;11.950;2022-12-16T09:11:23;101533.84;;;-5.42;100.00
13015;BME280;6573;57.696;11.950;2022-12-16T09:14:09;101535.63;;;-5.29;100.00
13015;BME280;6573;57.696;11.950;2022-12-16T09:16:55;101545.44;;;-5.23;100.00
13015;BME280;6573;57.696;11.950;2022-12-16T09:19:40;101543.63;;;-5.25;100.00
13015;BME280;6573;57.696;11.950;2022-12-16T09:22:28;101550.56;;;-5.23;100.00
13015;BME280;6573;57.696;11.950;2022-12-16T09:25:10;101551.44;;;-5.11;100.00
13015;BME280;6573;57.696;11.950;2022-12-16T09:27:55;101550.72;;;-4.97;100.00
13015;BME280;6573;57.696;11.950;2022-12-16T09:30:41;101560.06;;;-4.86;100.00
13015;BME280;6573;57.696;11.950;2022-12-16T09:33:27;101547.28;;;-4.73;100.00
13015;BME280;6573;57.696;11.950;2022-12-16T09:36:12;101552.56;;;-4.59;100.00
13015;BME280;6573;57.696;11.950;2022-12-16T09:39:00;101508.41;;;-4.66;100.00
13015;BME280;6573;57.696;11.950;2022-12-16T09:41:56;101537.97;;;-4.35;100.00
13015;BME280;6573;57.696;11.950;2022-12-16T09:44:54;101539.56;;;-4.37;100.00
13015;BME280;6573;57.696;11.950;2022-12-16T09:47:49;101536.41;;;-4.33;100.00
13015;BME280;6573;57.696;11.950;2022-12-16T09:50:39;101534.06;;;-4.17;100.00
13015;BME280;6573;57.696;11.950;2022-12-16T09:53:27;101530.16;;;-3.99;100.00
13015;BME280;6573;57.696;11.950;2022-12-16T09:56:21;101539.47;;;-3.87;100.00
13015;BME280;6573;57.696;11.950;2022-12-16T09:59:11;101537.91;;;-3.72;100.00
13015;BME280;6573;57.696;11.950;2022-12-16T10:01:58;101531.38;;;-3.80;100.00
13015;BME280;6573;57.696;11.950;2022-12-16T10:04:49;101536.50;;;-3.80;100.00
13015;BME280;6573;57.696;11.950;2022-12-16T10:07:39;101527.19;;;-3.92;100.00
13015;BME280;6573;57.696;11.950;2022-12-16T10:10:34;101520.88;;;-3.83;100.00
13015;BME280;6573;57.696;11.950;2022-12-16T10:13:33;101519.41;;;-3.67;100.00
13015;BME280;6573;57.696;11.950;2022-12-16T10:16:28;101507.94;;;-3.59;100.00
13015;BME280;6573;57.696;11.950;2022-12-16T10:19:28;101483.22;;;-3.70;100.00
13015;BME280;6573;57.696;11.950;2022-12-16T10:22:22;101502.31;;;-3.53;100.00
13015;BME280;6573;57.696;11.950;2022-12-16T10:25:15;101501.72;;;-3.62;100.00
13015;BME280;6573;57.696;11.950;2022-12-16T10:28:09;101503.88;;;-3.55;100.00
13015;BME280;6573;57.696;11.950;2022-12-16T10:31:01;101504.66;;;-3.56;100.00
13015;BME280;6573;57.696;11.950;2022-12-16T10:33:52;101502.31;;;-3.53;100.00
13015;BME280;6573;57.696;11.950;2022-12-16T10:36:40;101502.50;;;-3.50;100.00
13015;BME280;6573;57.696;11.950;2022-12-16T10:39:34;101500.91;;;-3.48;100.00
13015;BME280;6573;57.696;11.950;2022-12-16T10:42:25;101502.59;;;-3.49;100.00
13015;BME280;6573;57.696;11.950;2022-12-16T10:45:18;101497.53;;;-3.47;100.00
13015;BME280;6573;57.696;11.950;2022-12-16T10:48:07;101501.69;;;-3.36;100.00
13015;BME280;6573;57.696;11.950;2022-12-16T10:50:56;101493.66;;;-3.28;100.00
13015;BME280;6573;57.696;11.950;2022-12-16T10:53:45;101490.41;;;-3.25;100.00
13015;BME280;6573;57.696;11.950;2022-12-16T10:56:46;101506.19;;;-3.19;100.00
13015;BME280;6573;57.696;11.950;2022-12-16T10:59:35;101487.41;;;-3.18;100.00
13015;BME280;6573;57.696;11.950;2022-12-16T11:02:23;101496.88;;;-3.04;100.00
13015;BME280;6573;57.696;11.950;2022-12-16T11:05:29;101480.72;;;-3.01;100.00
13015;BME280;6573;57.696;11.950;2022-12-16T11:08:27;101480.41;;;-2.93;100.00
13015;BME280;6573;57.696;11.950;2022-12-16T11:11:19;101447.00;;;-3.06;100.00
13015;BME280;6573;57.696;11.950;2022-12-16T11:14:17;101489.16;;;-2.76;100.00
13015;BME280;6573;57.696;11.950;2022-12-16T11:17:25;101478.84;;;-2.76;100.00
13015;BME280;6573;57.696;11.950;2022-12-16T11:20:15;101482.56;;;-2.86;100.00
13015;BME280;6573;57.696;11.950;2022-12-16T11:23:23;101472.06;;;-2.89;100.00
13015;BME280;6573;57.696;11.950;2022-12-16T11:26:18;101472.50;;;-2.68;100.00
13015;BME280;6573;57.696;11.950;2022-12-16T11:29:09;101475.16;;;-2.67;100.00
13015;BME280;6573;57.696;11.950;2022-12-16T11:32:01;101482.25;;;-2.63;100.00
13015;BME280;6573;57.696;11.950;2022-12-16T11:34:59;101470.38;;;-2.60;100.00
13015;BME280;6573;57.696;11.950;2022-12-16T11:37:49;101478.69;;;-2.65;100.00
13015;BME280;6573;57.696;11.950;2022-12-16T11:40:38;101467.81;;;-2.60;100.00
13015;BME280;6573;57.696;11.950;2022-12-16T11:43:26;101478.00;;;-2.47;100.00
13015;BME280;6573;57.696;11.950;2022-12-16T11:46:25;101469.31;;;-2.49;100.00
13015;BME280;6573;57.696;11.950;2022-12-16T11:49:18;101474.84;;;-2.43;100.00
13015;BME280;6573;57.696;11.950;2022-12-16T11:52:09;101476.59;;;-2.42;100.00
13015;BME280;6573;57.696;11.950;2022-12-16T11:55:17;101481.41;;;-2.48;100.00
13015;BME280;6573;57.696;11.950;2022-12-16T11:58:32;101488.06;;;-2.52;100.00
13015;BME280;6573;57.696;11.950;2022-12-16T12:01:25;101479.44;;;-2.52;100.00
13015;BME280;6573;57.696;11.950;2022-12-16T12:04:13;101482.66;;;-2.42;100.00
13015;BME280;6573;57.696;11.950;2022-12-16T12:07:08;101485.50;;;-2.37;100.00
13015;BME280;6573;57.696;11.950;2022-12-16T12:10:28;101457.50;;;-2.60;100.00
13015;BME280;6573;57.696;11.950;2022-12-16T12:13:25;101484.56;;;-2.52;100.00
13015;BME280;6573;57.696;11.950;2022-12-16T12:16:28;101492.75;;;-2.59;100.00
13015;BME280;6573;57.696;11.950;2022-12-16T12:19:17;101489.00;;;-2.65;100.00
13015;BME280;6573;57.696;11.950;2022-12-16T12:22:24;101485.63;;;-2.64;100.00
13015;BME280;6573;57.696;11.950;2022-12-16T12:25:20;101470.38;;;-2.60;100.00
13015;BME280;6573;57.696;11.950;2022-12-16T12:28:16;101472.88;;;-2.47;100.00
13015;BME280;6573;57.696;11.950;2022-12-16T12:31:11;101476.78;;;-2.39;100.00
13015;BME280;6573;57.696;11.950;2022-12-16T12:34:07;101475.38;;;-2.34;100.00
13015;BME280;6573;57.696;11.950;2022-12-16T12:37:01;101474.84;;;-2.43;100.00
13015;BME280;6573;57.696;11.950;2022-12-16T12:39:56;101436.16;;;-2.73;100.00
13015;BME280;6573;57.696;11.950;2022-12-16T12:42:50;101472.06;;;-2.46;100.00
13015;BME280;6573;57.696;11.950;2022-12-16T12:45:47;101473.06;;;-2.44;100.00
13015;BME280;6573;57.696;11.950;2022-12-16T12:48:41;101481.50;;;-2.32;100.00
13015;BME280;6573;57.696;11.950;2022-12-16T12:51:36;101479.44;;;-2.23;100.00
13015;BME280;6573;57.696;11.950;2022-12-16T12:54:33;101483.91;;;-2.21;100.00
13015;BME280;6573;57.696;11.950;2022-12-16T12:57:24;101487.81;;;-2.27;100.00
13015;BME280;6573;57.696;11.950;2022-12-16T13:00:24;101489.66;;;-2.39;100.00
13015;BME280;6573;57.696;11.950;2022-12-16T13:03:14;101486.72;;;-2.45;100.00
13015;BME280;6573;57.696;11.950;2022-12-16T13:06:01;101493.84;;;-2.41;100.00
13015;BME280;6573;57.696;11.950;2022-12-16T13:08:56;101486.38;;;-2.51;100.00
13015;BME280;6573;57.696;11.950;2022-12-16T13:15:17;101490.81;;;-2.49;100.00
13015;BME280;6573;57.696;11.950;2022-12-16T13:18:23;101498.06;;;-2.56;100.00
13015;BME280;6573;57.696;11.950;2022-12-16T13:21:43;101492.03;;;-2.57;100.00
13015;BME280;6573;57.696;11.950;2022-12-16T13:24:43;101496.13;;;-2.60;100.00
13015;BME280;6573;57.696;11.950;2022-12-16T13:27:46;101502.50;;;-2.69;100.00
13015;BME280;6573;57.696;11.950;2022-12-16T13:30:34;101504.44;;;-2.65;100.00
13015;BME280;6573;57.696;11.950;2022-12-16T13:33:27;101498.03;;;-2.71;100.00
13015;BME280;6573;57.696;11.950;2022-12-16T13:36:15;101490.91;;;-2.75;100.00
13015;BME280;6573;57.696;11.950;2022-12-16T13:39:21;101507.06;;;-2.78;100.00
13015;BME280;6573;57.696;11.950;2022-12-16T13:42:34;101505.88;;;-2.83;100.00
13015;BME280;6573;57.696;11.950;2022-12-16T13:45:35;101491.81;;;-2.75;100.00
13015;BME280;6573;57.696;11.950;2022-12-16T13:48:33;101500.16;;;-2.79;100.00
13015;BME280;6573;57.696;11.950;2022-12-16T13:55:14;101477.66;;;-2.96;100.00
13015;BME280;6573;57.696;11.950;2022-12-16T13:58:13;101499.97;;;-2.82;100.00
13015;BME280;6573;57.696;11.950;2022-12-16T14:01:05;101500.34;;;-2.76;100.00
13015;BME280;6573;57.696;11.950;2022-12-16T14:03:55;101509.25;;;-2.71;100.00
13015;BME280;6573;57.696;11.950;2022-12-16T14:06:43;101498.94;;;-2.71;100.00
13015;BME280;6573;57.696;11.950;2022-12-16T14:09:33;101487.75;;;-2.71;100.00
13015;BME280;6573;57.696;11.950;2022-12-16T14:12:40;101491.47;;;-2.81;100.00
13015;BME280;6573;57.696;11.950;2022-12-16T14:15:34;101493.59;;;-2.74;100.00
13015;BME280;6573;57.696;11.950;2022-12-16T14:18:34;101483.50;;;-2.71;100.00
13015;BME280;6573;57.696;11.950;2022-12-16T14:21:27;101479.56;;;-2.79;100.00